Time;durP1;ratioP1;P1;durP2;ratioP2;P2;SDS_P1;SDS_P2;PMS_P1;PMS_P2;Temp;Humidity;BMP_temperature;BMP_pressure;BME280_temperature;BME280_humidity;BME280_pressure;Samples;Min_cycle;Max_cycle;Signal;HPM_P1;HPM_P2
2022/11/03 00:01:55;;;;;;;15.45;3.10;;;;;;;;;;5093949;28;20470;-74
2022/11/03 00:04:22;;;;;;;10.48;3.22;;;;;;;;;;5055790;28;20434;-74
2022/11/03 00:06:50;;;;;;;12.00;3.20;;;;;;;;;;5087359;28;20430;-73
2022/11/03 00:09:17;;;;;;;10.70;2.88;;;;;;;;;;5099401;28;20481;-75
2022/11/03 00:11:44;;;;;;;13.38;3.50;;;11.40;99.90;;;;;;5091756;28;21035;-75
2022/11/03 00:14:11;;;;;;;12.80;3.55;;;10.90;99.90;;;;;;5085850;28;20427;-75
2022/11/03 00:16:38;;;;;;;9.88;2.80;;;;;;;;;;5066793;28;20422;-75
2022/11/03 00:19:04;;;;;;;13.32;3.08;;;;;;;;;;5092743;28;20413;-74
2022/11/03 00:21:30;;;;;;;11.73;3.70;;;;;;;;;;5077115;28;20850;-76
2022/11/03 00:23:57;;;;;;;13.27;3.22;;;;;;;;;;5090851;28;20457;-78
2022/11/03 00:26:27;;;;;;;14.13;3.00;;;;;;;;;;5092038;28;20913;-77
2022/11/03 00:28:55;;;;;;;11.85;2.85;;;10.80;99.90;;;;;;5079484;28;20444;-76
2022/11/03 00:31:21;;;;;;;13.87;3.57;;;;;;;;;;5080043;28;20917;-76
2022/11/03 00:33:47;;;;;;;11.45;3.10;;;;;;;;;;5073524;28;20426;-77
2022/11/03 00:36:14;;;;;;;11.70;3.00;;;;;;;;;;5092131;28;20425;-78
2022/11/03 00:38:40;;;;;;;11.15;2.88;;;;;;;;;;5089086;28;20426;-77
2022/11/03 00:41:06;;;;;;;11.43;3.15;;;11.30;99.90;;;;;;5074634;28;20408;-77
2022/11/03 00:43:34;;;;;;;14.32;3.55;;;11.30;99.90;;;;;;5080941;28;20508;-78
2022/11/03 00:46:00;;;;;;;11.52;2.97;;;;;;;;;;5092917;28;20430;-77
2022/11/03 00:48:29;;;;;;;12.93;3.33;;;;;;;;;;5067748;28;20915;-76
2022/11/03 00:51:07;;;;;;;12.57;3.30;;;;;;;;;;5064162;28;20508;-77
2022/11/03 00:53:35;;;;;;;12.82;3.50;;;;;;;;;;5075060;28;20510;-77
2022/11/03 00:56:01;;;;;;;18.60;3.97;;;;;;;;;;5074656;28;20475;-77
2022/11/03 00:58:27;;;;;;;11.80;3.25;;;;;;;;;;5087805;28;20799;-78
2022/11/03 01:01:04;;;;;;;13.67;3.40;;;;;;;;;;5069417;28;20873;-77
2022/11/03 01:03:31;;;;;;;14.55;3.20;;;10.70;99.90;;;;;;5063349;28;20424;-78
2022/11/03 01:08:42;;;;;;;15.70;3.30;;;;;;;;;;5095180;28;20525;-78
2022/11/03 01:13:57;;;;;;;12.68;3.40;;;;;;;;;;5090443;28;20428;-78
2022/11/03 01:16:23;;;;;;;15.40;3.47;;;;;;;;;;5091932;28;20421;-78
2022/11/03 01:18:50;;;;;;;10.60;2.90;;;;;;;;;;5089433;28;20814;-78
2022/11/03 01:21:16;;;;;;;14.85;2.90;;;;;;;;;;5074413;28;20414;-77
2022/11/03 01:23:43;;;;;;;11.68;2.83;;;;;;;;;;5073722;28;20414;-78
2022/11/03 01:26:10;;;;;;;11.95;3.20;;;10.80;99.90;;;;;;5090745;28;20425;-79
2022/11/03 01:28:40;;;;;;;14.90;3.35;;;10.40;99.90;;;;;;5090039;28;20416;-78
2022/11/03 01:31:10;;;;;;;14.48;3.30;;;;;;;;;;5073713;28;20605;-78
2022/11/03 01:33:37;;;;;;;15.02;3.33;;;10.90;99.90;;;;;;5090179;28;20420;-77
2022/11/03 01:36:03;;;;;;;11.52;3.10;;;;;;;;;;5089937;28;20540;-78
2022/11/03 01:38:33;;;;;;;13.48;2.75;;;;;;;;;;5072791;28;20426;-78
2022/11/03 01:40:59;;;;;;;13.40;3.00;;;;;;;;;;5090735;28;20458;-78
2022/11/03 01:43:27;;;;;;;13.60;3.75;;;;;;;;;;5091606;28;20898;-77
2022/11/03 01:46:17;;;;;;;10.77;3.20;;;;;;;;;;5108572;28;20501;-77
2022/11/03 01:49:07;;;;;;;12.00;2.90;;;10.90;99.90;;;;;;5076415;28;20418;-76
2022/11/03 01:51:34;;;;;;;14.13;3.58;;;;;;;;;;5090587;28;20422;-78
2022/11/03 01:54:03;;;;;;;13.68;3.72;;;;;;;;;;5073447;28;20418;-77
2022/11/03 01:56:32;;;;;;;13.68;3.28;;;10.30;99.90;;;;;;5091110;28;20913;-77
2022/11/03 01:59:01;;;;;;;12.52;3.10;;;;;;;;;;5090162;28;20423;-78
2022/11/03 02:01:28;;;;;;;14.43;3.40;;;10.40;99.90;;;;;;5089383;28;20410;-76
2022/11/03 02:04:00;;;;;;;11.70;3.40;;;;;;;;;;5072687;28;20980;-76
2022/11/03 02:06:27;;;;;;;15.52;3.05;;;;;;;;;;5088248;28;20453;-77
2022/11/03 02:09:02;;;;;;;14.53;3.30;;;;;;;;;;5092506;28;20494;-76
2022/11/03 02:14:14;;;;;;;11.45;2.90;;;10.70;99.90;;;;;;5096697;28;20442;-77
2022/11/03 02:16:42;;;;;;;13.90;3.00;;;;;;;;;;5091890;28;20738;-77
2022/11/03 02:19:14;;;;;;;15.93;3.50;;;;;;;;;;5089435;28;20416;-76
2022/11/03 02:21:48;;;;;;;15.68;3.75;;;;;;;;;;5090644;28;20997;-76
2022/11/03 02:24:23;;;;;;;11.20;2.80;;;10.80;99.90;;;;;;5089743;28;20463;-77
2022/11/03 02:26:50;;;;;;;12.77;2.73;;;;;;;;;;5088010;28;20478;-76
2022/11/03 02:29:16;;;;;;;11.48;3.33;;;;;;;;;;5081871;28;20478;-77
2022/11/03 02:31:45;;;;;;;17.98;3.40;;;;;;;;;;5086706;28;20523;-76
2022/11/03 02:34:31;;;;;;;15.35;3.00;;;;;;;;;;5094296;28;20509;-77
2022/11/03 02:37:13;;;;;;;12.32;3.10;;;;;;;;;;5073959;28;20754;-76
2022/11/03 02:39:51;;;;;;;12.60;2.83;;;10.90;99.90;;;;;;5070474;28;20425;-77
2022/11/03 02:42:18;;;;;;;14.15;3.60;;;;;;;;;;5073273;28;20913;-78
2022/11/03 02:44:46;;;;;;;14.20;3.20;;;;;;;;;;5090192;28;20865;-78
2022/11/03 02:47:14;;;;;;;13.02;3.40;;;10.90;99.90;;;;;;5084301;28;20461;-75
2022/11/03 02:49:44;;;;;;;15.00;3.28;;;;;;;;;;5070091;28;21052;-77
2022/11/03 02:52:29;;;;;;;14.17;3.33;;;;;;;;;;5088548;28;20429;-77
2022/11/03 02:54:57;;;;;;;13.13;3.47;;;10.80;99.90;;;;;;5088631;28;20425;-75
2022/11/03 02:57:28;;;;;;;13.63;3.25;;;10.90;99.90;;;;;;5059637;28;20771;-77
2022/11/03 02:59:59;;;;;;;16.23;3.25;;;;;;;;;;5091290;28;20432;-77
2022/11/03 03:02:32;;;;;;;11.88;3.10;;;10.70;99.90;;;;;;5071448;28;20421;-78
2022/11/03 03:05:01;;;;;;;15.88;3.50;;;;;;;;;;5071994;28;20812;-78
2022/11/03 03:07:31;;;;;;;12.18;3.00;;;10.80;99.90;;;;;;5089189;28;20425;-78
2022/11/03 03:10:08;;;;;;;11.87;3.10;;;10.80;99.90;;;;;;5071977;28;20458;-78
2022/11/03 03:12:35;;;;;;;17.13;3.10;;;;;;;;;;5085629;28;20918;-78
2022/11/03 03:15:03;;;;;;;12.33;3.07;;;;;;;;;;5088435;28;20477;-78
2022/11/03 03:17:35;;;;;;;13.32;3.80;;;;;;;;;;5090804;28;20473;-78
2022/11/03 03:20:12;;;;;;;16.40;4.90;;;;;;;;;;5092543;28;20453;-78
2022/11/03 03:22:50;;;;;;;11.88;3.42;;;10.80;99.90;;;;;;5089940;28;20861;-78
2022/11/03 03:25:23;;;;;;;11.68;3.20;;;;;;;;;;5071011;28;20418;-78
2022/11/03 03:27:57;;;;;;;13.57;3.20;;;10.70;99.90;;;;;;5089167;28;20413;-78
2022/11/03 03:30:23;;;;;;;14.52;3.22;;;;;;;;;;5089506;28;20421;-78
2022/11/03 03:32:50;;;;;;;13.63;3.30;;;;;;;;;;5076529;28;20435;-77
2022/11/03 03:35:23;;;;;;;14.18;3.20;;;11.00;99.90;;;;;;5086461;28;20839;-77
2022/11/03 03:37:50;;;;;;;10.82;2.95;;;;;;;;;;5070283;28;20801;-77
2022/11/03 03:40:26;;;;;;;19.27;3.50;;;10.40;99.90;;;;;;5087323;28;20830;-77
2022/11/03 03:42:52;;;;;;;13.95;3.70;;;;;;;;;;5071660;28;20738;-77
2022/11/03 03:45:19;;;;;;;13.40;3.38;;;;;;;;;;5087679;28;20463;-77
2022/11/03 03:47:46;;;;;;;13.73;3.33;;;10.80;99.90;;;;;;5098792;28;20416;-77
2022/11/03 03:50:12;;;;;;;12.80;3.28;;;;;;;;;;5088280;28;20498;-78
2022/11/03 03:52:38;;;;;;;14.52;3.28;;;;;;;;;;5087497;28;20414;-76
2022/11/03 03:55:07;;;;;;;14.07;3.28;;;;;;;;;;5053921;28;20430;-78
2022/11/03 03:57:33;;;;;;;14.37;3.10;;;11.10;99.90;;;;;;5064155;28;20508;-78
2022/11/03 03:59:59;;;;;;;14.00;3.70;;;;;;;;;;5073838;28;20504;-77
2022/11/03 04:02:25;;;;;;;12.73;3.10;;;;;;;;;;5088075;28;20471;-77
2022/11/03 04:04:51;;;;;;;12.40;3.40;;;;;;;;;;5069928;28;20481;-77
2022/11/03 04:10:05;;;;;;;16.48;3.30;;;;;;;;;;5089185;28;20413;-77
2022/11/03 04:23:29;;;;;;;17.50;3.08;;;;;;;;;;5086503;28;20426;-76
2022/11/03 04:25:56;;;;;;;13.98;3.78;;;;;;;;;;5084039;28;20458;-77
2022/11/03 04:28:22;;;;;;;14.18;3.42;;;;;;;;;;5047450;28;20503;-74
2022/11/03 04:30:48;;;;;;;14.38;3.15;;;;;;;;;;5103603;28;20966;-74
2022/11/03 04:33:21;;;;;;;15.45;3.30;;;10.90;99.90;;;;;;5087368;28;20749;-75
2022/11/03 04:35:47;;;;;;;13.10;3.25;;;;;;;;;;5095756;28;20428;-74
2022/11/03 04:38:13;;;;;;;13.15;3.45;;;;;;;;;;5088860;28;20422;-74
2022/11/03 04:40:44;;;;;;;15.95;3.30;;;10.40;99.90;;;;;;5093622;28;20405;-73
2022/11/03 04:43:13;;;;;;;15.02;3.22;;;11.00;99.90;;;;;;5074539;28;20424;-74
2022/11/03 04:45:39;;;;;;;13.13;3.00;;;;;;;;;;5098602;28;20459;-74
2022/11/03 04:48:16;;;;;;;14.82;3.33;;;;;;;;;;5071048;28;20449;-74
2022/11/03 04:50:42;;;;;;;14.02;3.13;;;;;;;;;;5091167;28;20425;-74
2022/11/03 04:53:11;;;;;;;13.20;3.08;;;;;;;;;;5090465;28;20414;-74
2022/11/03 04:55:39;;;;;;;13.18;3.03;;;;;;;;;;5088907;28;20462;-73
2022/11/03 04:58:16;;;;;;;14.05;3.65;;;10.90;99.90;;;;;;5089466;28;20774;-74
2022/11/03 05:00:42;;;;;;;14.73;3.50;;;;;;;;;;5084127;28;20555;-73
2022/11/03 05:03:13;;;;;;;14.48;3.53;;;;;;;;;;5090764;28;20493;-74
2022/11/03 05:05:39;;;;;;;11.53;3.23;;;;;;;;;;5092478;28;20754;-74
2022/11/03 05:08:08;;;;;;;13.48;3.47;;;;;;;;;;5086714;28;20425;-74
2022/11/03 05:10:34;;;;;;;12.23;3.00;;;;;;;;;;5076394;28;20529;-74
2022/11/03 05:13:00;;;;;;;12.20;3.40;;;11.20;99.90;;;;;;5091054;28;20774;-74
2022/11/03 05:15:37;;;;;;;12.80;2.92;;;;;;;;;;5074425;28;20905;-74
2022/11/03 05:18:23;;;;;;;13.70;3.47;;;;;;;;;;5059235;28;20748;-75
2022/11/03 05:20:56;;;;;;;10.07;3.10;;;;;;;;;;5093980;28;20437;-75
2022/11/03 05:23:22;;;;;;;12.68;3.30;;;;;;;;;;5082952;28;20421;-74
2022/11/03 05:25:56;;;;;;;12.23;3.45;;;;;;;;;;5093020;28;20430;-74
2022/11/03 05:28:25;;;;;;;13.82;3.63;;;11.00;99.90;;;;;;5071788;28;20433;-75
2022/11/03 05:30:52;;;;;;;12.52;3.20;;;;;;;;;;5092796;28;20409;-75
2022/11/03 05:33:20;;;;;;;11.00;3.20;;;;;;;;;;5073561;28;20419;-75
2022/11/03 05:35:46;;;;;;;14.57;3.28;;;;;;;;;;5092068;28;20426;-74
2022/11/03 05:38:14;;;;;;;12.40;3.08;;;;;;;;;;5070362;28;20435;-75
2022/11/03 05:40:40;;;;;;;10.70;2.88;;;;;;;;;;5090603;28;20456;-74
2022/11/03 05:43:09;;;;;;;13.60;3.33;;;10.60;99.90;;;;;;5089257;28;20424;-74
2022/11/03 05:45:36;;;;;;;13.20;3.45;;;11.00;99.90;;;;;;5084776;28;20915;-73
2022/11/03 05:48:05;;;;;;;12.25;3.38;;;;;;;;;;5067485;28;20435;-75
2022/11/03 05:50:34;;;;;;;11.82;2.83;;;10.90;99.90;;;;;;5088712;28;20465;-76
2022/11/03 05:53:18;;;;;;;15.33;3.40;;;10.40;99.90;;;;;;5084426;28;20438;-76
2022/11/03 05:55:44;;;;;;;10.33;2.90;;;;;;;;;;5087148;28;20438;-75
2022/11/03 05:58:21;;;;;;;12.30;3.17;;;;;;;;;;5086110;28;20991;-74
2022/11/03 06:00:48;;;;;;;14.77;3.78;;;;;;;;;;5085909;28;20417;-74
2022/11/03 06:03:15;;;;;;;13.93;3.65;;;;;;;;;;5088531;28;20442;-75
2022/11/03 06:05:41;;;;;;;14.43;3.35;;;;;;;;;;5072166;28;20530;-75
2022/11/03 06:08:24;;;;;;;12.77;3.63;;;;;;;;;;5112711;28;20887;-75
2022/11/03 06:10:57;;;;;;;15.10;3.20;;;;;;;;;;5072484;28;20414;-76
2022/11/03 06:13:29;;;;;;;13.50;3.67;;;;;;;;;;5088316;28;20778;-75
2022/11/03 06:15:57;;;;;;;13.32;4.45;;;;;;;;;;5088194;28;20425;-75
2022/11/03 06:18:25;;;;;;;13.80;4.28;;;;;;;;;;5089642;28;20434;-76
2022/11/03 06:20:57;;;;;;;11.68;3.25;;;10.80;99.90;;;;;;5074796;28;20418;-75
2022/11/03 06:23:23;;;;;;;15.38;3.70;;;;;;;;;;5089672;28;20414;-75
2022/11/03 06:25:52;;;;;;;14.65;4.00;;;;;;;;;;5089404;28;20501;-74
2022/11/03 06:28:38;;;;;;;14.23;3.80;;;;;;;;;;5088121;28;20449;-74
2022/11/03 06:31:12;;;;;;;13.00;3.30;;;;;;;;;;5087395;28;20425;-75
2022/11/03 06:33:38;;;;;;;14.47;4.03;;;;;;;;;;5089257;28;20418;-75
2022/11/03 06:36:12;;;;;;;15.95;3.58;;;;;;;;;;5074586;28;20432;-74
2022/11/03 06:38:39;;;;;;;14.90;4.53;;;;;;;;;;5088611;28;20423;-75
2022/11/03 06:41:05;;;;;;;13.00;3.65;;;;;;;;;;5073855;28;20417;-74
2022/11/03 06:43:39;;;;;;;12.98;3.63;;;11.10;99.90;;;;;;5074349;28;20915;-76
2022/11/03 06:46:17;;;;;;;13.05;3.58;;;10.80;99.90;;;;;;5088519;28;20417;-75
2022/11/03 06:48:44;;;;;;;12.52;4.00;;;;;;;;;;5074847;28;20420;-76
2022/11/03 06:51:19;;;;;;;10.82;3.42;;;;;;;;;;5093959;28;20414;-75
2022/11/03 06:53:47;;;;;;;10.27;2.97;;;;;;;;;;5071919;28;20426;-75
2022/11/03 06:56:21;;;;;;;9.90;2.90;;;10.90;99.90;;;;;;5059957;28;20428;-75
2022/11/03 06:58:48;;;;;;;14.13;3.80;;;;;;;;;;5070451;28;20421;-74
2022/11/03 07:01:34;;;;;;;13.85;3.42;;;;;;;;;;5087610;28;20428;-74
2022/11/03 07:04:12;;;;;;;13.50;3.58;;;;;;;;;;5095990;28;20445;-75
2022/11/03 07:06:38;;;;;;;12.77;3.40;;;;;;;;;;5069355;28;20466;-76
2022/11/03 07:09:08;;;;;;;13.25;3.28;;;;;;;;;;5086611;28;20763;-76
2022/11/03 07:11:37;;;;;;;10.80;3.37;;;;;;;;;;5070240;28;20409;-75
2022/11/03 07:14:09;;;;;;;12.00;3.30;;;;;;;;;;5089587;28;20424;-74
2022/11/03 07:16:43;;;;;;;13.02;3.47;;;;;;;;;;5079022;28;20446;-75
2022/11/03 07:19:23;;;;;;;13.98;3.67;;;;;;;;;;5089225;28;20418;-76
2022/11/03 07:22:04;;;;;;;13.77;3.20;;;11.10;99.90;;;;;;5070212;28;20433;-76
2022/11/03 07:24:37;;;;;;;9.90;3.00;;;11.30;99.90;;;;;;5094782;28;20489;-75
2022/11/03 07:27:18;;;;;;;12.32;3.75;;;;;;;;;;5086540;28;20497;-76
2022/11/03 07:29:45;;;;;;;12.60;3.28;;;;;;;;;;5072260;28;20425;-76
2022/11/03 07:32:15;;;;;;;10.85;3.22;;;;;;;;;;5082361;28;20454;-76
2022/11/03 07:34:41;;;;;;;14.07;3.33;;;;;;;;;;5084369;28;20425;-77
2022/11/03 07:37:14;;;;;;;10.45;2.80;;;;;;;;;;5070287;28;20782;-75
2022/11/03 07:39:40;;;;;;;10.60;3.63;;;;;;;;;;5087713;28;20425;-75
2022/11/03 07:42:25;;;;;;;9.43;3.03;;;;;;;;;;5068941;28;21099;-76
2022/11/03 07:44:52;;;;;;;11.50;3.42;;;;;;;;;;5094101;28;20415;-75
2022/11/03 07:47:25;;;;;;;14.40;3.55;;;;;;;;;;5093069;28;20764;-75
2022/11/03 07:49:51;;;;;;;14.80;3.80;;;;;;;;;;5102080;28;20416;-76
2022/11/03 07:52:22;;;;;;;13.60;3.45;;;11.20;99.90;;;;;;5071752;28;20501;-75
2022/11/03 07:54:51;;;;;;;11.48;3.40;;;11.60;99.90;;;;;;5084108;28;20956;-75
2022/11/03 07:57:29;;;;;;;13.07;3.13;;;;;;;;;;5082628;28;20411;-75
2022/11/03 08:00:03;;;;;;;13.38;3.40;;;;;;;;;;5079824;28;20424;-74
2022/11/03 08:02:42;;;;;;;11.32;3.10;;;;;;;;;;5085314;28;20421;-75
2022/11/03 08:05:08;;;;;;;12.27;3.38;;;;;;;;;;5082338;28;20704;-75
2022/11/03 08:07:34;;;;;;;9.57;3.05;;;;;;;;;;5069255;28;20426;-76
2022/11/03 08:10:00;;;;;;;13.35;2.90;;;;;;;;;;5085969;28;20424;-76
2022/11/03 08:12:26;;;;;;;12.50;3.53;;;;;;;;;;5057325;28;20955;-76
2022/11/03 08:14:52;;;;;;;11.20;3.08;;;;;;;;;;5091911;28;20441;-75
2022/11/03 08:17:19;;;;;;;13.90;3.45;;;;;;;;;;5093741;28;20980;-76
2022/11/03 08:19:45;;;;;;;12.15;3.05;;;;;;;;;;5086451;28;20921;-76
2022/11/03 08:22:11;;;;;;;12.73;3.43;;;;;;;;;;5087912;28;20444;-76
2022/11/03 08:24:37;;;;;;;11.38;3.05;;;12.00;99.90;;;;;;5082815;28;20512;-75
2022/11/03 08:27:03;;;;;;;13.05;3.13;;;;;;;;;;5054407;28;20460;-77
2022/11/03 08:29:30;;;;;;;9.40;2.97;;;;;;;;;;5073450;28;20425;-76
2022/11/03 08:31:56;;;;;;;13.95;3.25;;;;;;;;;;5085966;28;20780;-76
2022/11/03 08:34:22;;;;;;;10.98;2.83;;;;;;;;;;5089237;28;20433;-76
2022/11/03 08:36:48;;;;;;;11.63;3.50;;;11.80;99.90;;;;;;5091041;28;22606;-76
2022/11/03 08:39:14;;;;;;;13.73;3.40;;;;;;;;;;5073761;28;20497;-76
2022/11/03 08:41:40;;;;;;;13.53;3.03;;;;;;;;;;5084813;28;20896;-76
2022/11/03 08:44:06;;;;;;;12.50;3.20;;;12.30;99.90;;;;;;5060071;28;20426;-76
2022/11/03 08:46:32;;;;;;;11.65;3.40;;;;;;;;;;5072350;28;20417;-76
2022/11/03 08:48:58;;;;;;;14.55;3.63;;;;;;;;;;5048292;28;20431;-75
2022/11/03 08:51:24;;;;;;;11.82;3.15;;;;;;;;;;5090813;28;20778;-76
2022/11/03 08:53:53;;;;;;;14.15;3.42;;;;;;;;;;5085419;28;20897;-75
2022/11/03 08:56:20;;;;;;;11.27;3.28;;;;;;;;;;5088400;28;20428;-76
2022/11/03 08:58:47;;;;;;;10.70;3.22;;;12.60;99.90;;;;;;5093710;28;20414;-75
2022/11/03 09:01:13;;;;;;;12.85;3.78;;;;;;;;;;5073401;28;20420;-76
2022/11/03 09:03:39;;;;;;;10.77;3.15;;;12.60;99.90;;;;;;5073462;28;20418;-76
2022/11/03 09:06:06;;;;;;;10.90;3.40;;;;;;;;;;5087468;28;20417;-74
2022/11/03 09:08:32;;;;;;;12.60;3.43;;;;;;;;;;5086468;28;20496;-76
2022/11/03 09:10:58;;;;;;;11.25;3.58;;;;;;;;;;5073407;28;20497;-76
2022/11/03 09:13:23;;;;;;;14.45;3.63;;;12.60;99.90;;;;;;5067593;28;20792;-75
2022/11/03 09:15:49;;;;;;;13.93;3.40;;;;;;;;;;5075314;28;20695;-74
2022/11/03 09:18:16;;;;;;;10.00;3.03;;;;;;;;;;5055484;28;20418;-76
2022/11/03 09:20:42;;;;;;;14.20;3.60;;;;;;;;;;5074011;28;20484;-76
2022/11/03 09:23:08;;;;;;;14.30;3.60;;;;;;;;;;5099238;28;20909;-76
2022/11/03 09:25:34;;;;;;;13.85;3.45;;;;;;;;;;5073002;28;20520;-75
2022/11/03 09:28:00;;;;;;;13.68;3.08;;;;;;;;;;5071573;28;20421;-76
2022/11/03 09:30:27;;;;;;;12.93;3.53;;;;;;;;;;5071848;28;20477;-76
2022/11/03 09:32:53;;;;;;;11.02;3.55;;;;;;;;;;5058075;28;20983;-76
2022/11/03 09:35:19;;;;;;;12.17;3.87;;;;;;;;;;5092491;28;20494;-76
2022/11/03 09:37:48;;;;;;;13.65;3.72;;;;;;;;;;5089957;28;20474;-76
2022/11/03 09:40:15;;;;;;;14.27;3.20;;;13.30;99.90;;;;;;5054634;28;20930;-76
2022/11/03 09:42:42;;;;;;;12.55;3.50;;;;;;;;;;5083808;28;20485;-76
2022/11/03 09:45:08;;;;;;;10.85;3.05;;;;;;;;;;5069147;28;20766;-76
2022/11/03 09:47:39;;;;;;;11.23;3.27;;;13.30;99.90;;;;;;5073853;28;20433;-76
2022/11/03 09:50:05;;;;;;;11.20;3.58;;;;;;;;;;5071109;28;20621;-76
2022/11/03 09:52:31;;;;;;;12.80;3.70;;;;;;;;;;5091792;28;20544;-77
2022/11/03 09:55:01;;;;;;;11.48;3.15;;;;;;;;;;5088886;28;20892;-77
2022/11/03 09:57:27;;;;;;;9.48;2.90;;;;;;;;;;5056008;28;20563;-77
2022/11/03 09:59:58;;;;;;;8.88;2.85;;;;;;;;;;5083594;28;20416;-77
2022/11/03 10:02:27;;;;;;;10.85;3.22;;;13.50;99.90;;;;;;5098671;28;20910;-77
2022/11/03 10:04:55;;;;;;;14.40;3.75;;;;;;;;;;5063161;28;20916;-75
2022/11/03 10:07:21;;;;;;;11.43;3.33;;;;;;;;;;5072614;28;20485;-75
2022/11/03 10:09:49;;;;;;;10.68;3.05;;;;;;;;;;5098726;28;20786;-75
2022/11/03 10:12:15;;;;;;;10.35;3.47;;;13.80;99.90;;;;;;5088206;28;20498;-78
2022/11/03 10:14:42;;;;;;;10.95;3.08;;;13.70;99.90;;;;;;5087918;28;20426;-76
2022/11/03 10:17:14;;;;;;;9.45;3.10;;;;;;;;;;5097441;28;20416;-75
2022/11/03 10:19:40;;;;;;;13.77;3.58;;;14.10;99.90;;;;;;5091337;28;20417;-76
2022/11/03 10:22:06;;;;;;;12.07;2.97;;;14.00;99.90;;;;;;5063473;28;20421;-75
2022/11/03 10:24:32;;;;;;;13.02;3.80;;;;;;;;;;5089392;28;20746;-76
2022/11/03 10:26:58;;;;;;;12.55;3.10;;;;;;;;;;5091309;28;20410;-76
2022/11/03 10:29:26;;;;;;;11.40;3.00;;;;;;;;;;5086122;28;20421;-76
2022/11/03 10:31:54;;;;;;;13.02;3.00;;;13.70;99.90;;;;;;5105157;28;20488;-76
2022/11/03 10:34:36;;;;;;;11.85;2.90;;;14.30;99.90;;;;;;5094850;28;20928;-77
2022/11/03 10:37:11;;;;;;;11.80;3.50;;;;;;;;;;5086604;28;20480;-74
2022/11/03 10:39:37;;;;;;;11.38;2.80;;;;;;;;;;5088707;28;20497;-74
2022/11/03 10:42:03;;;;;;;11.60;3.20;;;;;;;;;;5073885;28;20418;-76
2022/11/03 10:44:30;;;;;;;10.45;3.13;;;;;;;;;;5070225;28;20461;-75
2022/11/03 10:46:56;;;;;;;12.32;3.40;;;;;;;;;;5070967;28;20432;-74
2022/11/03 10:49:23;;;;;;;13.43;3.42;;;;;;;;;;5074209;28;20451;-76
2022/11/03 10:51:55;;;;;;;13.23;3.13;;;14.50;99.90;;;;;;5094832;28;20481;-75
2022/11/03 10:54:22;;;;;;;11.10;3.15;;;;;;;;;;5072598;28;20427;-75
2022/11/03 10:56:50;;;;;;;9.07;2.75;;;14.50;99.90;;;;;;5067164;28;20414;-75
2022/11/03 10:59:30;;;;;;;11.43;3.03;;;14.70;99.90;;;;;;5089254;28;20424;-75
2022/11/03 11:02:00;;;;;;;11.60;3.28;;;14.60;99.90;;;;;;5070757;28;20418;-76
2022/11/03 11:04:26;;;;;;;10.63;3.22;;;14.90;99.90;;;;;;5069402;28;20420;-75
2022/11/03 11:06:52;;;;;;;12.52;3.33;;;;;;;;;;5069652;28;20426;-76
2022/11/03 11:09:22;;;;;;;11.23;3.40;;;;;;;;;;5090693;28;20412;-76
2022/11/03 11:12:36;;;;;;;10.45;2.95;;;14.80;99.90;;;;;;5084476;28;20452;-76
2022/11/03 11:15:22;;;;;;;10.93;3.45;;;15.10;99.90;;;;;;4991272;28;20455;-75
2022/11/03 11:17:49;;;;;;;10.10;2.78;;;;;;;;;;4981818;28;20469;-75
2022/11/03 11:20:20;;;;;;;10.68;2.70;;;;;;;;;;5048696;28;20418;-74
2022/11/03 11:22:46;;;;;;;10.38;3.15;;;15.30;99.90;;;;;;5086743;28;20417;-75
2022/11/03 11:25:12;;;;;;;11.82;3.47;;;;;;;;;;5089872;28;20416;-76
2022/11/03 11:27:38;;;;;;;10.30;3.03;;;;;;;;;;5100910;28;20440;-76
2022/11/03 11:30:06;;;;;;;11.63;2.67;;;;;;;;;;5089351;28;20484;-75
2022/11/03 11:32:41;;;;;;;8.60;2.80;;;;;;;;;;5090408;28;20483;-75
2022/11/03 11:35:08;;;;;;;8.52;2.47;;;15.20;99.90;;;;;;5087086;28;20505;-76
2022/11/03 11:37:36;;;;;;;8.02;2.53;;;15.50;99.90;;;;;;5088033;28;20428;-77
2022/11/03 11:40:03;;;;;;;7.80;2.47;;;;;;;;;;5069948;28;20439;-77
2022/11/03 11:42:29;;;;;;;10.52;2.65;;;;;;;;;;5083411;28;20433;-75
2022/11/03 11:45:01;;;;;;;8.18;2.42;;;15.30;99.90;;;;;;5053361;28;20510;-75
2022/11/03 11:47:40;;;;;;;9.57;2.80;;;;;;;;;;5083118;28;20417;-77
2022/11/03 11:50:06;;;;;;;7.68;2.55;;;;;;;;;;5087043;28;20474;-75
2022/11/03 11:52:59;;;;;;;6.57;2.53;;;15.50;99.90;;;;;;5085151;28;20422;-76
2022/11/03 11:55:34;;;;;;;7.75;2.58;;;;;;;;;;5071141;28;20459;-76
2022/11/03 11:58:03;;;;;;;9.40;2.58;;;15.50;99.90;;;;;;5086115;28;20944;-76
2022/11/03 12:00:30;;;;;;;10.32;2.53;;;;;;;;;;5072465;28;20474;-77
2022/11/03 12:02:58;;;;;;;8.75;2.70;;;15.10;99.90;;;;;;5067320;28;20465;-76
2022/11/03 12:05:33;;;;;;;7.57;2.55;;;15.50;99.90;;;;;;5071175;28;20429;-77
2022/11/03 12:07:59;;;;;;;9.15;2.58;;;;;;;;;;5070890;28;20483;-78
2022/11/03 12:10:30;;;;;;;9.43;2.40;;;15.30;99.90;;;;;;5087158;28;20449;-76
2022/11/03 12:12:57;;;;;;;10.05;2.70;;;;;;;;;;5086699;28;20429;-75
2022/11/03 12:15:51;;;;;;;8.60;2.40;;;15.30;99.90;;;;;;5087393;28;20460;-75
2022/11/03 12:18:46;;;;;;;8.05;2.53;;;15.50;99.90;;;;;;5072011;28;20459;-76
2022/11/03 12:21:33;;;;;;;9.60;2.50;;;15.50;99.90;;;;;;5049080;28;20534;-77
2022/11/03 12:23:59;;;;;;;7.82;2.75;;;;;;;;;;5070943;28;20843;-78
2022/11/03 12:26:28;;;;;;;9.32;2.60;;;;;;;;;;5070492;28;20923;-77
2022/11/03 12:28:54;;;;;;;10.55;2.85;;;;;;;;;;5088078;28;20904;-77
2022/11/03 12:31:23;;;;;;;8.00;2.70;;;15.30;99.90;;;;;;5094519;28;20418;-77
2022/11/03 12:33:49;;;;;;;7.77;2.30;;;;;;;;;;5054182;28;20508;-79
2022/11/03 12:36:16;;;;;;;8.20;2.72;;;;;;;;;;5088164;28;20921;-78
2022/11/03 12:38:42;;;;;;;9.27;2.30;;;;;;;;;;5084821;28;20450;-78
2022/11/03 12:44:05;;;;;;;8.02;2.47;;;;;;;;;;5071066;28;20518;-78
2022/11/03 12:46:33;;;;;;;9.45;2.65;;;;;;;;;;5083744;28;20417;-79
2022/11/03 12:48:59;;;;;;;7.85;2.53;;;;;;;;;;5072378;28;20397;-78
2022/11/03 12:51:26;;;;;;;7.10;2.40;;;;;;;;;;5070102;28;20428;-77
2022/11/03 12:53:54;;;;;;;8.57;2.42;;;;;;;;;;5052681;28;20950;-77
2022/11/03 12:56:20;;;;;;;7.03;2.50;;;;;;;;;;5084487;28;20515;-78
2022/11/03 12:58:46;;;;;;;6.65;2.60;;;;;;;;;;5075967;28;20414;-79
2022/11/03 13:01:15;;;;;;;8.40;2.90;;;;;;;;;;5074511;28;20448;-78
2022/11/03 13:03:44;;;;;;;7.43;2.80;;;;;;;;;;5089079;28;20410;-80
2022/11/03 13:06:13;;;;;;;10.07;2.70;;;;;;;;;;5083815;28;20865;-79
2022/11/03 13:08:39;;;;;;;9.70;2.83;;;;;;;;;;5076838;28;20433;-79
2022/11/03 13:13:50;;;;;;;6.38;2.30;;;;;;;;;;5079471;28;20923;-77
2022/11/03 13:16:16;;;;;;;10.07;2.70;;;;;;;;;;5082330;28;20475;-78
2022/11/03 13:18:42;;;;;;;9.55;2.42;;;;;;;;;;5075986;28;20455;-78
2022/11/03 13:21:12;;;;;;;7.28;2.30;;;;;;;;;;5093530;28;20425;-78
2022/11/03 13:23:38;;;;;;;7.85;2.33;;;;;;;;;;5087370;28;20917;-78
2022/11/03 13:26:04;;;;;;;6.93;2.70;;;;;;;;;;5090499;28;22533;-77
2022/11/03 13:28:30;;;;;;;11.50;2.77;;;;;;;;;;5057628;28;20473;-76
2022/11/03 13:30:57;;;;;;;8.85;2.40;;;;;;;;;;5081551;28;20421;-78
2022/11/03 13:33:23;;;;;;;7.35;2.60;;;;;;;;;;5091199;28;20879;-78
2022/11/03 13:35:52;;;;;;;7.38;2.42;;;;;;;;;;5076242;28;20465;-79
2022/11/03 13:38:18;;;;;;;6.50;2.00;;;;;;;;;;5066009;28;20450;-78
2022/11/03 13:40:44;;;;;;;8.00;2.58;;;;;;;;;;5091592;28;20474;-77
2022/11/03 13:43:10;;;;;;;8.70;2.33;;;;;;;;;;5057163;28;20423;-76
2022/11/03 13:45:37;;;;;;;7.93;2.47;;;;;;;;;;5074133;28;20425;-77
2022/11/03 13:48:03;;;;;;;13.20;3.13;;;;;;;;;;5072747;28;20427;-77
2022/11/03 13:50:29;;;;;;;9.82;2.78;;;;;;;;;;5096126;28;20493;-79
2022/11/03 13:53:13;;;;;;;8.45;2.80;;;;;;;;;;5054508;28;20504;-77
2022/11/03 13:55:39;;;;;;;8.43;2.83;;;;;;;;;;5091650;28;20912;-78
2022/11/03 13:58:49;;;;;;;9.13;2.75;;;;;;;;;;5057130;28;20564;-77
2022/11/03 14:01:23;;;;;;;6.43;2.40;;;;;;;;;;5089143;28;20429;-76
2022/11/03 14:04:06;;;;;;;7.78;2.70;;;;;;;;;;5070307;28;20414;-79
2022/11/03 14:06:38;;;;;;;8.85;2.60;;;;;;;;;;5072697;28;21695;-79
2022/11/03 14:09:04;;;;;;;8.45;2.78;;;;;;;;;;5085573;28;20770;-78
2022/11/03 14:14:28;;;;;;;8.00;2.80;;;;;;;;;;5087468;28;20499;-76
2022/11/03 14:16:54;;;;;;;8.05;2.70;;;;;;;;;;5067819;28;20428;-76
2022/11/03 14:19:21;;;;;;;7.63;2.58;;;;;;;;;;5088144;28;20421;-76
2022/11/03 14:21:47;;;;;;;7.78;2.70;;;;;;;;;;5081787;28;20416;-76
2022/11/03 14:24:13;;;;;;;7.13;2.60;;;;;;;;;;5084561;28;20501;-76
2022/11/03 14:26:39;;;;;;;9.30;2.67;;;;;;;;;;5075468;28;20445;-77
2022/11/03 14:29:05;;;;;;;8.98;2.50;;;;;;;;;;5067894;28;20418;-77
2022/11/03 14:31:31;;;;;;;7.00;2.60;;;;;;;;;;5072813;28;20410;-77
2022/11/03 14:33:57;;;;;;;8.70;2.60;;;;;;;;;;5071363;28;20415;-75
2022/11/03 14:36:23;;;;;;;7.88;2.65;;;;;;;;;;5086691;28;20452;-77
2022/11/03 14:38:50;;;;;;;10.85;2.67;;;;;;;;;;5077962;28;20428;-78
2022/11/03 14:44:02;;;;;;;11.98;2.88;;;;;;;;;;5073684;28;20429;-77
2022/11/03 14:46:28;;;;;;;8.00;2.40;;;;;;;;;;5089215;28;20419;-76
2022/11/03 14:48:54;;;;;;;9.95;2.30;;;;;;;;;;5055302;28;20968;-76
2022/11/03 14:51:20;;;;;;;8.40;2.60;;;;;;;;;;5087430;28;20505;-77